sensor_id;sensor_type;location;lat;lon;timestamp;P1;durP1;ratioP1;P2;durP2;ratioP2
70532;SDS011;58088;51.186;17.130;2023-05-07T00:00:58;9.60;;;3.90;;
70532;SDS011;58088;51.186;17.130;2023-05-07T00:03:25;8.20;;;3.90;;
70532;SDS011;58088;51.186;17.130;2023-05-07T00:05:53;6.40;;;3.70;;
70532;SDS011;58088;51.186;17.130;2023-05-07T00:08:19;7.30;;;4.10;;
70532;SDS011;58088;51.186;17.130;2023-05-07T00:10:46;8.80;;;4.40;;
70532;SDS011;58088;51.186;17.130;2023-05-07T00:13:12;7.40;;;4.10;;
70532;SDS011;58088;51.186;17.130;2023-05-07T00:15:38;7.40;;;4.20;;
70532;SDS011;58088;51.186;17.130;2023-05-07T00:18:04;7.30;;;3.90;;
70532;SDS011;58088;51.186;17.130;2023-05-07T00:20:31;7.90;;;4.10;;
70532;SDS011;58088;51.186;17.130;2023-05-07T00:22:57;8.80;;;3.80;;
70532;SDS011;58088;51.186;17.130;2023-05-07T00:25:23;8.00;;;3.70;;
70532;SDS011;58088;51.186;17.130;2023-05-07T00:27:49;9.20;;;4.70;;
70532;SDS011;58088;51.186;17.130;2023-05-07T00:30:15;7.40;;;4.00;;
70532;SDS011;58088;51.186;17.130;2023-05-07T00:32:41;8.10;;;4.20;;
70532;SDS011;58088;51.186;17.130;2023-05-07T00:35:08;8.40;;;4.20;;
70532;SDS011;58088;51.186;17.130;2023-05-07T00:37:35;9.20;;;4.40;;
70532;SDS011;58088;51.186;17.130;2023-05-07T00:40:01;8.00;;;3.90;;
70532;SDS011;58088;51.186;17.130;2023-05-07T00:42:30;6.70;;;4.10;;
70532;SDS011;58088;51.186;17.130;2023-05-07T00:44:58;8.60;;;4.10;;
70532;SDS011;58088;51.186;17.130;2023-05-07T00:47:25;8.00;;;4.30;;
70532;SDS011;58088;51.186;17.130;2023-05-07T00:49:51;10.80;;;4.50;;
70532;SDS011;58088;51.186;17.130;2023-05-07T00:52:19;9.80;;;4.80;;
70532;SDS011;58088;51.186;17.130;2023-05-07T00:54:49;10.50;;;4.80;;
70532;SDS011;58088;51.186;17.130;2023-05-07T00:57:15;9.60;;;5.10;;
70532;SDS011;58088;51.186;17.130;2023-05-07T00:59:42;7.50;;;4.20;;
70532;SDS011;58088;51.186;17.130;2023-05-07T01:02:08;8.00;;;5.10;;
70532;SDS011;58088;51.186;17.130;2023-05-07T01:04:35;10.20;;;5.40;;
70532;SDS011;58088;51.186;17.130;2023-05-07T01:07:02;8.60;;;4.80;;
70532;SDS011;58088;51.186;17.130;2023-05-07T01:09:30;9.30;;;5.10;;
70532;SDS011;58088;51.186;17.130;2023-05-07T01:11:57;9.90;;;5.00;;
70532;SDS011;58088;51.186;17.130;2023-05-07T01:14:25;10.00;;;5.00;;
70532;SDS011;58088;51.186;17.130;2023-05-07T01:16:51;10.10;;;5.70;;
70532;SDS011;58088;51.186;17.130;2023-05-07T01:19:20;8.80;;;5.40;;
70532;SDS011;58088;51.186;17.130;2023-05-07T01:21:48;9.20;;;4.90;;
70532;SDS011;58088;51.186;17.130;2023-05-07T01:24:16;8.50;;;5.10;;
70532;SDS011;58088;51.186;17.130;2023-05-07T01:26:43;9.00;;;5.10;;
70532;SDS011;58088;51.186;17.130;2023-05-07T01:29:11;9.70;;;4.90;;
70532;SDS011;58088;51.186;17.130;2023-05-07T01:31:38;11.40;;;5.30;;
70532;SDS011;58088;51.186;17.130;2023-05-07T01:34:08;9.20;;;4.80;;
70532;SDS011;58088;51.186;17.130;2023-05-07T01:36:38;8.60;;;4.80;;
70532;SDS011;58088;51.186;17.130;2023-05-07T01:39:06;8.50;;;4.20;;
70532;SDS011;58088;51.186;17.130;2023-05-07T01:41:33;10.00;;;4.70;;
70532;SDS011;58088;51.186;17.130;2023-05-07T01:44:01;9.80;;;5.20;;
70532;SDS011;58088;51.186;17.130;2023-05-07T01:46:31;9.00;;;4.70;;
70532;SDS011;58088;51.186;17.130;2023-05-07T01:48:59;8.70;;;5.00;;
70532;SDS011;58088;51.186;17.130;2023-05-07T01:51:25;9.00;;;4.90;;
70532;SDS011;58088;51.186;17.130;2023-05-07T01:53:52;8.10;;;4.60;;
70532;SDS011;58088;51.186;17.130;2023-05-07T01:56:19;9.50;;;4.80;;
70532;SDS011;58088;51.186;17.130;2023-05-07T01:58:46;9.60;;;4.50;;
70532;SDS011;58088;51.186;17.130;2023-05-07T02:01:13;8.70;;;5.00;;
70532;SDS011;58088;51.186;17.130;2023-05-07T02:04:18;9.70;;;4.60;;
70532;SDS011;58088;51.186;17.130;2023-05-07T02:06:45;10.40;;;5.30;;
70532;SDS011;58088;51.186;17.130;2023-05-07T02:09:13;10.00;;;5.40;;
70532;SDS011;58088;51.186;17.130;2023-05-07T02:11:42;9.40;;;5.20;;
70532;SDS011;58088;51.186;17.130;2023-05-07T02:14:08;9.90;;;5.90;;
70532;SDS011;58088;51.186;17.130;2023-05-07T02:16:34;9.90;;;5.90;;
70532;SDS011;58088;51.186;17.130;2023-05-07T02:19:03;11.90;;;6.20;;
70532;SDS011;58088;51.186;17.130;2023-05-07T02:21:29;10.40;;;6.20;;
70532;SDS011;58088;51.186;17.130;2023-05-07T02:23:55;8.70;;;4.70;;
70532;SDS011;58088;51.186;17.130;2023-05-07T02:26:22;9.40;;;4.80;;
70532;SDS011;58088;51.186;17.130;2023-05-07T02:28:48;10.90;;;5.10;;
70532;SDS011;58088;51.186;17.130;2023-05-07T02:31:14;10.60;;;5.30;;
70532;SDS011;58088;51.186;17.130;2023-05-07T02:33:40;8.50;;;3.80;;
70532;SDS011;58088;51.186;17.130;2023-05-07T02:36:11;8.50;;;4.00;;
70532;SDS011;58088;51.186;17.130;2023-05-07T02:39:14;10.10;;;5.00;;
70532;SDS011;58088;51.186;17.130;2023-05-07T02:41:41;9.40;;;4.70;;
70532;SDS011;58088;51.186;17.130;2023-05-07T02:44:07;8.50;;;4.30;;
70532;SDS011;58088;51.186;17.130;2023-05-07T02:46:33;11.90;;;4.60;;
70532;SDS011;58088;51.186;17.130;2023-05-07T02:49:03;8.00;;;4.30;;
70532;SDS011;58088;51.186;17.130;2023-05-07T02:51:30;10.60;;;5.00;;
70532;SDS011;58088;51.186;17.130;2023-05-07T02:53:57;10.00;;;4.80;;
70532;SDS011;58088;51.186;17.130;2023-05-07T02:56:25;10.70;;;5.10;;
70532;SDS011;58088;51.186;17.130;2023-05-07T02:58:52;10.90;;;5.00;;
70532;SDS011;58088;51.186;17.130;2023-05-07T03:01:19;10.70;;;4.80;;
70532;SDS011;58088;51.186;17.130;2023-05-07T03:04:04;9.00;;;5.00;;
70532;SDS011;58088;51.186;17.130;2023-05-07T03:06:30;8.70;;;4.40;;
70532;SDS011;58088;51.186;17.130;2023-05-07T03:08:56;7.90;;;4.30;;
70532;SDS011;58088;51.186;17.130;2023-05-07T03:11:23;9.60;;;5.20;;
70532;SDS011;58088;51.186;17.130;2023-05-07T03:13:49;12.00;;;5.60;;
70532;SDS011;58088;51.186;17.130;2023-05-07T03:16:16;9.60;;;5.20;;
70532;SDS011;58088;51.186;17.130;2023-05-07T03:18:43;8.70;;;4.80;;
70532;SDS011;58088;51.186;17.130;2023-05-07T03:21:09;8.70;;;4.50;;
70532;SDS011;58088;51.186;17.130;2023-05-07T03:23:35;8.30;;;4.10;;
70532;SDS011;58088;51.186;17.130;2023-05-07T03:26:01;7.70;;;3.40;;
70532;SDS011;58088;51.186;17.130;2023-05-07T03:28:28;9.10;;;3.30;;
70532;SDS011;58088;51.186;17.130;2023-05-07T03:30:58;5.50;;;2.30;;
70532;SDS011;58088;51.186;17.130;2023-05-07T03:33:24;7.10;;;3.60;;
70532;SDS011;58088;51.186;17.130;2023-05-07T03:35:51;7.50;;;3.20;;
70532;SDS011;58088;51.186;17.130;2023-05-07T03:38:20;8.90;;;3.90;;
70532;SDS011;58088;51.186;17.130;2023-05-07T03:40:46;9.00;;;4.50;;
70532;SDS011;58088;51.186;17.130;2023-05-07T03:43:12;8.90;;;5.20;;
70532;SDS011;58088;51.186;17.130;2023-05-07T03:45:42;9.90;;;6.20;;
70532;SDS011;58088;51.186;17.130;2023-05-07T03:48:23;11.80;;;6.50;;
70532;SDS011;58088;51.186;17.130;2023-05-07T03:50:50;11.70;;;6.50;;
70532;SDS011;58088;51.186;17.130;2023-05-07T03:53:16;10.80;;;7.00;;
70532;SDS011;58088;51.186;17.130;2023-05-07T03:55:43;12.60;;;6.70;;
70532;SDS011;58088;51.186;17.130;2023-05-07T03:58:09;10.90;;;6.10;;
70532;SDS011;58088;51.186;17.130;2023-05-07T04:00:36;11.80;;;6.60;;
70532;SDS011;58088;51.186;17.130;2023-05-07T04:03:09;14.30;;;6.50;;
70532;SDS011;58088;51.186;17.130;2023-05-07T04:05:35;10.30;;;6.80;;
70532;SDS011;58088;51.186;17.130;2023-05-07T04:08:01;10.70;;;6.50;;
70532;SDS011;58088;51.186;17.130;2023-05-07T04:10:34;10.00;;;6.50;;
70532;SDS011;58088;51.186;17.130;2023-05-07T04:13:03;10.90;;;6.70;;
70532;SDS011;58088;51.186;17.130;2023-05-07T04:15:30;11.00;;;6.20;;
70532;SDS011;58088;51.186;17.130;2023-05-07T04:17:56;10.40;;;6.80;;
70532;SDS011;58088;51.186;17.130;2023-05-07T04:20:23;10.70;;;6.20;;
70532;SDS011;58088;51.186;17.130;2023-05-07T04:22:54;12.20;;;6.30;;
70532;SDS011;58088;51.186;17.130;2023-05-07T04:25:21;10.30;;;6.40;;
70532;SDS011;58088;51.186;17.130;2023-05-07T04:27:51;9.90;;;5.70;;
70532;SDS011;58088;51.186;17.130;2023-05-07T04:30:17;11.30;;;5.90;;
70532;SDS011;58088;51.186;17.130;2023-05-07T04:32:44;11.60;;;6.50;;
70532;SDS011;58088;51.186;17.130;2023-05-07T04:35:11;13.70;;;6.00;;
70532;SDS011;58088;51.186;17.130;2023-05-07T04:37:38;10.30;;;6.20;;
70532;SDS011;58088;51.186;17.130;2023-05-07T04:40:06;7.90;;;4.70;;
70532;SDS011;58088;51.186;17.130;2023-05-07T04:42:33;8.10;;;5.20;;
70532;SDS011;58088;51.186;17.130;2023-05-07T04:45:00;9.10;;;5.60;;
70532;SDS011;58088;51.186;17.130;2023-05-07T04:47:28;8.80;;;5.50;;
70532;SDS011;58088;51.186;17.130;2023-05-07T04:49:54;9.10;;;4.90;;
70532;SDS011;58088;51.186;17.130;2023-05-07T04:52:21;7.80;;;5.00;;
70532;SDS011;58088;51.186;17.130;2023-05-07T04:54:47;11.90;;;6.10;;
70532;SDS011;58088;51.186;17.130;2023-05-07T04:57:14;9.80;;;5.50;;
70532;SDS011;58088;51.186;17.130;2023-05-07T04:59:41;9.10;;;5.50;;
70532;SDS011;58088;51.186;17.130;2023-05-07T05:02:07;8.50;;;5.70;;
70532;SDS011;58088;51.186;17.130;2023-05-07T05:04:34;8.40;;;5.30;;
70532;SDS011;58088;51.186;17.130;2023-05-07T05:07:00;8.00;;;4.70;;
70532;SDS011;58088;51.186;17.130;2023-05-07T05:09:27;8.60;;;5.50;;
70532;SDS011;58088;51.186;17.130;2023-05-07T05:11:53;8.00;;;4.50;;
70532;SDS011;58088;51.186;17.130;2023-05-07T05:14:19;8.70;;;4.90;;
70532;SDS011;58088;51.186;17.130;2023-05-07T05:16:46;8.60;;;5.10;;
70532;SDS011;58088;51.186;17.130;2023-05-07T05:19:12;10.10;;;5.30;;
70532;SDS011;58088;51.186;17.130;2023-05-07T05:21:43;8.40;;;4.40;;
70532;SDS011;58088;51.186;17.130;2023-05-07T05:24:10;9.20;;;4.80;;
70532;SDS011;58088;51.186;17.130;2023-05-07T05:26:36;9.10;;;5.10;;
70532;SDS011;58088;51.186;17.130;2023-05-07T05:29:02;7.40;;;4.30;;
70532;SDS011;58088;51.186;17.130;2023-05-07T05:31:29;8.80;;;4.50;;
70532;SDS011;58088;51.186;17.130;2023-05-07T05:33:55;7.10;;;4.10;;
70532;SDS011;58088;51.186;17.130;2023-05-07T05:36:22;8.70;;;4.90;;
70532;SDS011;58088;51.186;17.130;2023-05-07T05:38:49;8.70;;;5.20;;
70532;SDS011;58088;51.186;17.130;2023-05-07T05:41:16;9.50;;;5.00;;
70532;SDS011;58088;51.186;17.130;2023-05-07T05:43:42;8.50;;;4.50;;
70532;SDS011;58088;51.186;17.130;2023-05-07T05:46:09;7.80;;;4.30;;
70532;SDS011;58088;51.186;17.130;2023-05-07T05:48:37;7.90;;;3.90;;
70532;SDS011;58088;51.186;17.130;2023-05-07T05:51:04;9.20;;;5.10;;
70532;SDS011;58088;51.186;17.130;2023-05-07T05:53:30;8.40;;;4.40;;
70532;SDS011;58088;51.186;17.130;2023-05-07T05:55:56;9.10;;;4.50;;
70532;SDS011;58088;51.186;17.130;2023-05-07T05:58:22;8.10;;;4.40;;
70532;SDS011;58088;51.186;17.130;2023-05-07T06:00:52;7.40;;;4.50;;
70532;SDS011;58088;51.186;17.130;2023-05-07T06:03:20;7.80;;;4.40;;
70532;SDS011;58088;51.186;17.130;2023-05-07T06:05:46;9.50;;;4.50;;
70532;SDS011;58088;51.186;17.130;2023-05-07T06:08:13;5.50;;;2.60;;
70532;SDS011;58088;51.186;17.130;2023-05-07T06:10:42;8.40;;;4.90;;
70532;SDS011;58088;51.186;17.130;2023-05-07T06:13:09;6.90;;;2.80;;
70532;SDS011;58088;51.186;17.130;2023-05-07T06:15:36;10.10;;;4.90;;
70532;SDS011;58088;51.186;17.130;2023-05-07T06:18:06;6.90;;;4.20;;
70532;SDS011;58088;51.186;17.130;2023-05-07T06:20:33;8.00;;;4.50;;
70532;SDS011;58088;51.186;17.130;2023-05-07T06:22:59;7.70;;;4.80;;
70532;SDS011;58088;51.186;17.130;2023-05-07T06:25:26;8.60;;;5.20;;
70532;SDS011;58088;51.186;17.130;2023-05-07T06:27:53;8.90;;;4.60;;
70532;SDS011;58088;51.186;17.130;2023-05-07T06:30:19;6.40;;;3.10;;
70532;SDS011;58088;51.186;17.130;2023-05-07T06:32:45;7.00;;;3.80;;
70532;SDS011;58088;51.186;17.130;2023-05-07T06:35:12;6.90;;;3.20;;
70532;SDS011;58088;51.186;17.130;2023-05-07T06:37:39;4.70;;;2.20;;
70532;SDS011;58088;51.186;17.130;2023-05-07T06:40:11;7.20;;;3.40;;
70532;SDS011;58088;51.186;17.130;2023-05-07T06:42:38;12.20;;;5.30;;
70532;SDS011;58088;51.186;17.130;2023-05-07T06:45:21;8.80;;;4.20;;
70532;SDS011;58088;51.186;17.130;2023-05-07T06:47:47;6.70;;;3.60;;
70532;SDS011;58088;51.186;17.130;2023-05-07T06:50:13;6.20;;;3.20;;
70532;SDS011;58088;51.186;17.130;2023-05-07T06:52:43;6.30;;;3.00;;
70532;SDS011;58088;51.186;17.130;2023-05-07T06:55:09;6.10;;;3.00;;
70532;SDS011;58088;51.186;17.130;2023-05-07T06:57:37;4.90;;;2.30;;
70532;SDS011;58088;51.186;17.130;2023-05-07T07:00:05;3.40;;;1.50;;
70532;SDS011;58088;51.186;17.130;2023-05-07T07:02:40;6.90;;;3.50;;
70532;SDS011;58088;51.186;17.130;2023-05-07T07:05:07;5.80;;;2.50;;
70532;SDS011;58088;51.186;17.130;2023-05-07T07:07:33;6.50;;;3.30;;
70532;SDS011;58088;51.186;17.130;2023-05-07T07:09:59;5.70;;;2.90;;
70532;SDS011;58088;51.186;17.130;2023-05-07T07:12:25;6.40;;;3.20;;
70532;SDS011;58088;51.186;17.130;2023-05-07T07:14:55;5.90;;;3.40;;
70532;SDS011;58088;51.186;17.130;2023-05-07T07:17:22;6.50;;;3.90;;
70532;SDS011;58088;51.186;17.130;2023-05-07T07:19:48;7.90;;;4.30;;
70532;SDS011;58088;51.186;17.130;2023-05-07T07:22:15;8.30;;;4.70;;
70532;SDS011;58088;51.186;17.130;2023-05-07T07:24:41;6.60;;;3.00;;
70532;SDS011;58088;51.186;17.130;2023-05-07T07:27:08;8.70;;;5.20;;
70532;SDS011;58088;51.186;17.130;2023-05-07T07:29:34;8.70;;;4.70;;
70532;SDS011;58088;51.186;17.130;2023-05-07T07:32:01;7.50;;;4.10;;
70532;SDS011;58088;51.186;17.130;2023-05-07T07:34:27;8.50;;;4.60;;
70532;SDS011;58088;51.186;17.130;2023-05-07T07:36:53;8.90;;;4.60;;
70532;SDS011;58088;51.186;17.130;2023-05-07T07:39:19;9.60;;;4.60;;
70532;SDS011;58088;51.186;17.130;2023-05-07T07:41:47;7.40;;;4.10;;
70532;SDS011;58088;51.186;17.130;2023-05-07T07:44:13;7.40;;;4.40;;
70532;SDS011;58088;51.186;17.130;2023-05-07T07:46:40;5.70;;;2.90;;
70532;SDS011;58088;51.186;17.130;2023-05-07T07:49:06;8.90;;;4.30;;
70532;SDS011;58088;51.186;17.130;2023-05-07T07:51:33;9.30;;;4.60;;
70532;SDS011;58088;51.186;17.130;2023-05-07T07:54:00;7.80;;;4.20;;
70532;SDS011;58088;51.186;17.130;2023-05-07T07:56:28;7.90;;;4.00;;
70532;SDS011;58088;51.186;17.130;2023-05-07T07:58:55;7.90;;;3.50;;
70532;SDS011;58088;51.186;17.130;2023-05-07T08:01:21;7.70;;;4.70;;
70532;SDS011;58088;51.186;17.130;2023-05-07T08:03:48;10.40;;;5.30;;
70532;SDS011;58088;51.186;17.130;2023-05-07T08:06:15;7.60;;;4.10;;
70532;SDS011;58088;51.186;17.130;2023-05-07T08:08:41;8.80;;;5.30;;
70532;SDS011;58088;51.186;17.130;2023-05-07T08:11:08;9.90;;;5.20;;
70532;SDS011;58088;51.186;17.130;2023-05-07T08:13:36;8.50;;;5.00;;
70532;SDS011;58088;51.186;17.130;2023-05-07T08:16:04;8.80;;;5.10;;
70532;SDS011;58088;51.186;17.130;2023-05-07T08:18:30;8.90;;;4.80;;
70532;SDS011;58088;51.186;17.130;2023-05-07T08:20:57;8.90;;;5.00;;
70532;SDS011;58088;51.186;17.130;2023-05-07T08:23:24;6.80;;;3.10;;
70532;SDS011;58088;51.186;17.130;2023-05-07T08:25:53;8.80;;;4.70;;
70532;SDS011;58088;51.186;17.130;2023-05-07T08:28:19;9.10;;;5.50;;
70532;SDS011;58088;51.186;17.130;2023-05-07T08:30:47;8.80;;;5.00;;
70532;SDS011;58088;51.186;17.130;2023-05-07T08:33:13;9.30;;;4.10;;
70532;SDS011;58088;51.186;17.130;2023-05-07T08:35:39;9.10;;;4.90;;
70532;SDS011;58088;51.186;17.130;2023-05-07T08:38:06;8.80;;;5.20;;
70532;SDS011;58088;51.186;17.130;2023-05-07T08:40:37;9.20;;;5.30;;
70532;SDS011;58088;51.186;17.130;2023-05-07T08:43:07;9.60;;;5.20;;
70532;SDS011;58088;51.186;17.130;2023-05-07T08:45:37;8.60;;;4.50;;
70532;SDS011;58088;51.186;17.130;2023-05-07T08:48:15;7.80;;;4.10;;
70532;SDS011;58088;51.186;17.130;2023-05-07T08:50:46;9.50;;;5.60;;
70532;SDS011;58088;51.186;17.130;2023-05-07T08:53:12;8.30;;;5.00;;
70532;SDS011;58088;51.186;17.130;2023-05-07T08:55:41;7.10;;;3.60;;
70532;SDS011;58088;51.186;17.130;2023-05-07T08:58:07;7.70;;;4.10;;
70532;SDS011;58088;51.186;17.130;2023-05-07T09:00:36;8.80;;;4.50;;
70532;SDS011;58088;51.186;17.130;2023-05-07T09:03:04;8.40;;;3.80;;
70532;SDS011;58088;51.186;17.130;2023-05-07T09:05:31;8.30;;;3.60;;
70532;SDS011;58088;51.186;17.130;2023-05-07T09:08:02;8.40;;;4.50;;
70532;SDS011;58088;51.186;17.130;2023-05-07T09:10:29;9.20;;;5.40;;
70532;SDS011;58088;51.186;17.130;2023-05-07T09:12:58;9.70;;;5.20;;
70532;SDS011;58088;51.186;17.130;2023-05-07T09:15:24;9.00;;;5.40;;
70532;SDS011;58088;51.186;17.130;2023-05-07T09:17:53;9.50;;;5.80;;
70532;SDS011;58088;51.186;17.130;2023-05-07T09:20:19;10.30;;;5.60;;
70532;SDS011;58088;51.186;17.130;2023-05-07T09:22:46;9.60;;;4.70;;
70532;SDS011;58088;51.186;17.130;2023-05-07T09:25:14;7.90;;;4.40;;
70532;SDS011;58088;51.186;17.130;2023-05-07T09:27:41;6.90;;;3.40;;
70532;SDS011;58088;51.186;17.130;2023-05-07T09:30:08;8.70;;;4.80;;
70532;SDS011;58088;51.186;17.130;2023-05-07T09:32:36;9.60;;;6.40;;
70532;SDS011;58088;51.186;17.130;2023-05-07T09:35:17;9.00;;;2.80;;
70532;SDS011;58088;51.186;17.130;2023-05-07T09:37:45;9.60;;;5.60;;
70532;SDS011;58088;51.186;17.130;2023-05-07T09:40:25;10.70;;;5.60;;
70532;SDS011;58088;51.186;17.130;2023-05-07T09:42:54;10.70;;;5.20;;
70532;SDS011;58088;51.186;17.130;2023-05-07T09:45:28;7.50;;;4.70;;
70532;SDS011;58088;51.186;17.130;2023-05-07T09:47:56;9.30;;;4.60;;
70532;SDS011;58088;51.186;17.130;2023-05-07T09:50:36;7.30;;;4.30;;
70532;SDS011;58088;51.186;17.130;2023-05-07T09:53:11;7.40;;;3.60;;
70532;SDS011;58088;51.186;17.130;2023-05-07T09:55:39;7.40;;;4.00;;
70532;SDS011;58088;51.186;17.130;2023-05-07T09:58:07;6.90;;;4.00;;
70532;SDS011;58088;51.186;17.130;2023-05-07T10:00:33;8.40;;;3.90;;
70532;SDS011;58088;51.186;17.130;2023-05-07T10:03:04;8.20;;;4.60;;
70532;SDS011;58088;51.186;17.130;2023-05-07T10:05:42;8.00;;;4.10;;
70532;SDS011;58088;51.186;17.130;2023-05-07T10:08:10;11.70;;;5.10;;
70532;SDS011;58088;51.186;17.130;2023-05-07T10:10:37;9.30;;;4.40;;
70532;SDS011;58088;51.186;17.130;2023-05-07T10:13:08;8.90;;;4.90;;
70532;SDS011;58088;51.186;17.130;2023-05-07T10:15:37;7.90;;;4.70;;
70532;SDS011;58088;51.186;17.130;2023-05-07T10:18:06;7.00;;;3.90;;
70532;SDS011;58088;51.186;17.130;2023-05-07T10:20:34;6.10;;;3.20;;
70532;SDS011;58088;51.186;17.130;2023-05-07T10:23:04;7.50;;;3.10;;
70532;SDS011;58088;51.186;17.130;2023-05-07T10:25:36;7.30;;;3.80;;
70532;SDS011;58088;51.186;17.130;2023-05-07T10:28:09;9.90;;;4.20;;
70532;SDS011;58088;51.186;17.130;2023-05-07T10:30:53;6.30;;;3.80;;
70532;SDS011;58088;51.186;17.130;2023-05-07T10:33:29;4.60;;;2.00;;
70532;SDS011;58088;51.186;17.130;2023-05-07T10:36:00;6.90;;;3.90;;
70532;SDS011;58088;51.186;17.130;2023-05-07T10:38:30;7.40;;;4.00;;
70532;SDS011;58088;51.186;17.130;2023-05-07T10:40:59;7.60;;;3.80;;
70532;SDS011;58088;51.186;17.130;2023-05-07T10:43:41;5.70;;;2.50;;
70532;SDS011;58088;51.186;17.130;2023-05-07T10:46:19;5.50;;;3.10;;
70532;SDS011;58088;51.186;17.130;2023-05-07T10:49:07;8.90;;;4.60;;
70532;SDS011;58088;51.186;17.130;2023-05-07T10:51:40;13.80;;;6.70;;
70532;SDS011;58088;51.186;17.130;2023-05-07T10:56:46;7.80;;;4.00;;
70532;SDS011;58088;51.186;17.130;2023-05-07T11:01:53;6.70;;;3.40;;
70532;SDS011;58088;51.186;17.130;2023-05-07T11:04:43;6.60;;;3.60;;
70532;SDS011;58088;51.186;17.130;2023-05-07T11:07:28;12.10;;;5.30;;
70532;SDS011;58088;51.186;17.130;2023-05-07T11:10:05;8.60;;;4.10;;
70532;SDS011;58088;51.186;17.130;2023-05-07T11:15:15;8.60;;;4.10;;
70532;SDS011;58088;51.186;17.130;2023-05-07T11:18:02;8.10;;;4.10;;
70532;SDS011;58088;51.186;17.130;2023-05-07T11:26:16;6.40;;;3.70;;
70532;SDS011;58088;51.186;17.130;2023-05-07T11:28:43;7.60;;;3.30;;
70532;SDS011;58088;51.186;17.130;2023-05-07T11:31:13;7.00;;;3.30;;
70532;SDS011;58088;51.186;17.130;2023-05-07T11:33:39;5.10;;;3.00;;
70532;SDS011;58088;51.186;17.130;2023-05-07T11:36:08;7.00;;;3.70;;
70532;SDS011;58088;51.186;17.130;2023-05-07T11:38:39;6.40;;;4.00;;
70532;SDS011;58088;51.186;17.130;2023-05-07T11:41:07;5.40;;;3.50;;
70532;SDS011;58088;51.186;17.130;2023-05-07T11:43:34;6.60;;;3.50;;
70532;SDS011;58088;51.186;17.130;2023-05-07T11:46:09;6.40;;;2.90;;
70532;SDS011;58088;51.186;17.130;2023-05-07T11:48:37;6.80;;;3.10;;
70532;SDS011;58088;51.186;17.130;2023-05-07T11:51:06;5.60;;;2.90;;
70532;SDS011;58088;51.186;17.130;2023-05-07T11:53:39;6.50;;;3.60;;
70532;SDS011;58088;51.186;17.130;2023-05-07T11:56:08;7.80;;;3.80;;
70532;SDS011;58088;51.186;17.130;2023-05-07T11:58:36;6.00;;;3.00;;
70532;SDS011;58088;51.186;17.130;2023-05-07T12:01:07;6.20;;;2.90;;
70532;SDS011;58088;51.186;17.130;2023-05-07T12:03:40;6.30;;;3.70;;
70532;SDS011;58088;51.186;17.130;2023-05-07T12:06:17;6.10;;;3.80;;
70532;SDS011;58088;51.186;17.130;2023-05-07T12:08:45;6.80;;;4.30;;
70532;SDS011;58088;51.186;17.130;2023-05-07T12:11:15;6.60;;;3.80;;
70532;SDS011;58088;51.186;17.130;2023-05-07T12:13:47;4.60;;;2.50;;
70532;SDS011;58088;51.186;17.130;2023-05-07T12:16:14;4.20;;;2.20;;
70532;SDS011;58088;51.186;17.130;2023-05-07T12:18:42;6.00;;;2.80;;
70532;SDS011;58088;51.186;17.130;2023-05-07T12:21:09;7.00;;;3.40;;
70532;SDS011;58088;51.186;17.130;2023-05-07T12:23:37;7.90;;;4.70;;
70532;SDS011;58088;51.186;17.130;2023-05-07T12:26:04;8.10;;;5.20;;
70532;SDS011;58088;51.186;17.130;2023-05-07T12:28:31;7.40;;;4.10;;
70532;SDS011;58088;51.186;17.130;2023-05-07T12:31:03;6.60;;;4.10;;
70532;SDS011;58088;51.186;17.130;2023-05-07T12:33:31;7.20;;;4.10;;
70532;SDS011;58088;51.186;17.130;2023-05-07T12:35:58;7.10;;;3.70;;
70532;SDS011;58088;51.186;17.130;2023-05-07T12:38:25;6.70;;;3.80;;
70532;SDS011;58088;51.186;17.130;2023-05-07T12:40:54;7.70;;;4.30;;
70532;SDS011;58088;51.186;17.130;2023-05-07T12:43:24;7.10;;;3.50;;
70532;SDS011;58088;51.186;17.130;2023-05-07T12:45:56;5.70;;;3.00;;
70532;SDS011;58088;51.186;17.130;2023-05-07T12:48:25;8.20;;;4.80;;
70532;SDS011;58088;51.186;17.130;2023-05-07T12:50:53;7.00;;;4.10;;
70532;SDS011;58088;51.186;17.130;2023-05-07T12:53:22;5.90;;;3.20;;
70532;SDS011;58088;51.186;17.130;2023-05-07T12:55:51;8.60;;;5.30;;
70532;SDS011;58088;51.186;17.130;2023-05-07T12:58:22;8.10;;;4.50;;
70532;SDS011;58088;51.186;17.130;2023-05-07T13:00:51;8.90;;;4.90;;
70532;SDS011;58088;51.186;17.130;2023-05-07T13:03:37;6.50;;;3.70;;
70532;SDS011;58088;51.186;17.130;2023-05-07T13:06:09;9.90;;;5.40;;
70532;SDS011;58088;51.186;17.130;2023-05-07T13:08:37;9.00;;;4.70;;
70532;SDS011;58088;51.186;17.130;2023-05-07T13:11:10;7.30;;;4.50;;
70532;SDS011;58088;51.186;17.130;2023-05-07T13:13:39;9.30;;;5.40;;
70532;SDS011;58088;51.186;17.130;2023-05-07T13:16:08;10.40;;;4.90;;
70532;SDS011;58088;51.186;17.130;2023-05-07T13:18:38;7.20;;;4.00;;
70532;SDS011;58088;51.186;17.130;2023-05-07T13:21:05;8.40;;;5.10;;
70532;SDS011;58088;51.186;17.130;2023-05-07T13:23:32;7.10;;;4.40;;
70532;SDS011;58088;51.186;17.130;2023-05-07T13:26:02;7.10;;;3.80;;
70532;SDS011;58088;51.186;17.130;2023-05-07T13:28:28;8.20;;;4.10;;
70532;SDS011;58088;51.186;17.130;2023-05-07T13:30:54;5.90;;;3.20;;
70532;SDS011;58088;51.186;17.130;2023-05-07T13:33:20;7.80;;;3.70;;
70532;SDS011;58088;51.186;17.130;2023-05-07T13:35:47;9.50;;;4.00;;
70532;SDS011;58088;51.186;17.130;2023-05-07T13:38:13;6.40;;;2.40;;
70532;SDS011;58088;51.186;17.130;2023-05-07T13:40:41;6.10;;;2.80;;
70532;SDS011;58088;51.186;17.130;2023-05-07T13:43:07;8.00;;;4.60;;
70532;SDS011;58088;51.186;17.130;2023-05-07T13:45:33;6.60;;;3.30;;
70532;SDS011;58088;51.186;17.130;2023-05-07T13:48:00;6.20;;;3.50;;
70532;SDS011;58088;51.186;17.130;2023-05-07T13:50:26;6.00;;;3.30;;
70532;SDS011;58088;51.186;17.130;2023-05-07T13:52:52;7.80;;;3.50;;
70532;SDS011;58088;51.186;17.130;2023-05-07T13:55:19;6.00;;;3.60;;
70532;SDS011;58088;51.186;17.130;2023-05-07T13:57:47;6.40;;;3.30;;
70532;SDS011;58088;51.186;17.130;2023-05-07T14:00:14;5.60;;;2.90;;
70532;SDS011;58088;51.186;17.130;2023-05-07T14:02:41;7.70;;;4.30;;
70532;SDS011;58088;51.186;17.130;2023-05-07T14:05:08;7.20;;;3.80;;
70532;SDS011;58088;51.186;17.130;2023-05-07T14:07:35;6.70;;;3.20;;
70532;SDS011;58088;51.186;17.130;2023-05-07T14:10:02;6.20;;;3.00;;
70532;SDS011;58088;51.186;17.130;2023-05-07T14:12:28;6.00;;;3.60;;
70532;SDS011;58088;51.186;17.130;2023-05-07T14:14:55;6.20;;;3.60;;
70532;SDS011;58088;51.186;17.130;2023-05-07T14:17:22;4.90;;;2.00;;
70532;SDS011;58088;51.186;17.130;2023-05-07T14:19:50;5.80;;;3.20;;
70532;SDS011;58088;51.186;17.130;2023-05-07T14:22:17;6.20;;;2.90;;
70532;SDS011;58088;51.186;17.130;2023-05-07T14:24:43;7.30;;;3.60;;
70532;SDS011;58088;51.186;17.130;2023-05-07T14:27:09;7.20;;;4.40;;
70532;SDS011;58088;51.186;17.130;2023-05-07T14:29:35;7.80;;;4.60;;
70532;SDS011;58088;51.186;17.130;2023-05-07T14:32:02;8.90;;;3.30;;
70532;SDS011;58088;51.186;17.130;2023-05-07T14:34:29;6.40;;;3.60;;
70532;SDS011;58088;51.186;17.130;2023-05-07T14:36:55;7.30;;;3.40;;
70532;SDS011;58088;51.186;17.130;2023-05-07T14:39:21;9.80;;;5.50;;
70532;SDS011;58088;51.186;17.130;2023-05-07T14:41:47;6.60;;;3.80;;
70532;SDS011;58088;51.186;17.130;2023-05-07T14:44:14;8.40;;;4.70;;
70532;SDS011;58088;51.186;17.130;2023-05-07T14:46:40;8.20;;;4.90;;
70532;SDS011;58088;51.186;17.130;2023-05-07T14:49:06;8.90;;;4.70;;
70532;SDS011;58088;51.186;17.130;2023-05-07T14:51:36;8.50;;;4.80;;
70532;SDS011;58088;51.186;17.130;2023-05-07T14:54:03;7.50;;;4.10;;